Harvey, North Dakota
Current Conditions -  °F | °C
As of 1:35 AM on Friday 19 Dec 2014 (Local Time) from K5H4 Reporting Station
Haze Haze  
Wind Chill: 18°   Ceiling: 300
Heat Index: 25°   Visibility: 2.5mi
Dew Point: 25°   Wind: 6mph
Humidity: 100%   Direction: 160°SSE
Pressure: 29.98"   Gusts: NA
Location:  47.77°N, 99.94°W
Report Text: K5H4 190735Z AUTO 16005KT 2 1/2SM BR OVC003 M04/M04 A2998 RMK AO2
Loading
Personal Weather Stations






























Interactive Weather Map New forecast layout! Learn more

10-Day Weather Forecast

Advertisements
Track Severe Weather on mobile